createdAt,value
2022-08-22T00:01:49.701Z,92737.59
2022-08-22T00:03:09.412Z,92746.69
2022-08-22T00:04:21.609Z,92740.00
2022-08-22T00:07:13.468Z,92740.00
2022-08-22T00:09:55.197Z,92738.28
2022-08-22T00:12:32.918Z,92745.47
2022-08-22T00:15:42.612Z,92736.91
2022-08-22T00:18:11.452Z,92732.94
2022-08-22T00:20:52.890Z,92730.59
2022-08-22T00:23:26.181Z,92735.41
2022-08-22T00:26:07.238Z,92729.13
2022-08-22T00:28:49.510Z,92728.47
2022-08-22T00:31:49.495Z,92719.06
2022-08-22T00:34:30.996Z,92720.50
2022-08-22T00:37:02.662Z,92718.72
2022-08-22T00:39:42.594Z,92722.91
2022-08-22T00:42:31.502Z,92713.44
2022-08-22T00:45:00.102Z,92716.13
2022-08-22T00:47:55.385Z,92720.31
2022-08-22T00:50:30.024Z,92717.81
2022-08-22T00:53:00.566Z,92713.81
2022-08-22T00:55:35.212Z,92716.81
2022-08-22T00:58:51.050Z,92708.88
2022-08-22T01:01:26.758Z,92716.19
2022-08-22T01:04:14.239Z,92713.03
2022-08-22T01:07:09.587Z,92721.34
2022-08-22T01:10:00.361Z,92728.22
2022-08-22T01:12:42.383Z,92718.22
2022-08-22T01:15:14.070Z,92721.94
2022-08-22T01:18:00.127Z,92725.97
2022-08-22T01:20:50.657Z,92722.75
2022-08-22T01:23:46.293Z,92728.88
2022-08-22T01:26:32.632Z,92728.88
2022-08-22T01:29:27.718Z,92731.25
2022-08-22T01:32:15.226Z,92727.03
2022-08-22T01:35:15.040Z,92728.50
2022-08-22T01:38:03.924Z,92734.97
2022-08-22T01:40:53.750Z,92732.53
2022-08-22T01:43:58.887Z,92729.13
2022-08-22T01:46:53.907Z,92726.47
2022-08-22T01:49:29.773Z,92727.25
2022-08-22T01:52:33.594Z,92730.88
2022-08-22T01:55:08.098Z,92732.94
2022-08-22T01:57:51.293Z,92726.06
2022-08-22T02:00:35.513Z,92723.72
2022-08-22T02:03:36.469Z,92718.31
2022-08-22T02:06:38.949Z,92730.97
2022-08-22T02:09:26.627Z,92730.37
2022-08-22T02:12:21.566Z,92729.09
2022-08-22T02:15:13.955Z,92724.00
2022-08-22T02:18:18.307Z,92726.84
2022-08-22T02:21:10.421Z,92730.88
2022-08-22T02:23:56.155Z,92739.59
2022-08-22T02:26:37.538Z,92733.31
2022-08-22T02:29:12.651Z,92728.06
2022-08-22T02:31:54.402Z,92721.37
2022-08-22T02:34:31.159Z,92731.28
2022-08-22T02:37:40.954Z,92724.41
2022-08-22T02:40:14.894Z,92725.69
2022-08-22T02:42:59.384Z,92718.44
2022-08-22T02:45:48.639Z,92719.22
2022-08-22T02:48:44.543Z,92726.38
2022-08-22T02:51:36.898Z,92722.47
2022-08-22T02:54:18.226Z,92718.19
2022-08-22T02:57:19.111Z,92731.00
2022-08-22T03:00:31.844Z,92731.00
2022-08-22T03:03:22.606Z,92726.84
2022-08-22T03:06:01.851Z,92732.06
2022-08-22T03:08:42.793Z,92733.38
2022-08-22T03:11:26.716Z,92729.56
2022-08-22T03:14:09.686Z,92729.22
2022-08-22T03:17:02.687Z,92732.16
2022-08-22T03:19:48.893Z,92733.22
2022-08-22T03:22:19.624Z,92735.31
2022-08-22T03:25:13.149Z,92742.84
2022-08-22T03:27:58.905Z,92740.75
2022-08-22T03:30:41.681Z,92747.22
2022-08-22T03:33:25.056Z,92743.13
2022-08-22T03:36:01.405Z,92736.66
2022-08-22T03:38:35.196Z,92736.28
2022-08-22T03:41:31.852Z,92734.31
2022-08-22T03:44:23.816Z,92731.84
2022-08-22T03:47:17.542Z,92733.03
2022-08-22T03:50:10.412Z,92730.47
2022-08-22T03:53:12.150Z,92731.56
2022-08-22T03:56:24.634Z,92730.28
2022-08-22T03:59:13.357Z,92732.72
2022-08-22T04:01:49.813Z,92734.59
2022-08-22T04:04:35.744Z,92732.25
2022-08-22T04:07:41.894Z,92728.81
2022-08-22T04:11:02.859Z,92736.44
2022-08-22T04:13:55.449Z,92737.13
2022-08-22T04:16:51.166Z,92732.41
2022-08-22T04:19:29.143Z,92731.34
2022-08-22T04:22:02.695Z,92733.19
2022-08-22T04:25:04.635Z,92733.84
2022-08-22T04:27:43.842Z,92729.31
2022-08-22T04:30:31.499Z,92735.88
2022-08-22T04:33:17.478Z,92732.56
2022-08-22T04:36:13.762Z,92731.34
2022-08-22T04:38:59.908Z,92734.19
2022-08-22T04:41:48.315Z,92743.78
2022-08-22T04:44:49.508Z,92745.81
2022-08-22T04:47:54.116Z,92748.84
2022-08-22T04:50:26.299Z,92738.97
2022-08-22T04:53:12.635Z,92745.00
2022-08-22T04:55:54.520Z,92748.34
2022-08-22T04:58:56.362Z,92746.06
2022-08-22T05:01:37.419Z,92752.06
2022-08-22T05:04:13.285Z,92753.72
2022-08-22T05:06:47.822Z,92757.94
2022-08-22T05:09:21.117Z,92762.56
2022-08-22T05:11:55.731Z,92757.84
2022-08-22T05:14:49.772Z,92762.63
2022-08-22T05:17:29.875Z,92762.31
2022-08-22T05:20:06.188Z,92763.13
2022-08-22T05:22:40.208Z,92761.75
2022-08-22T05:25:15.315Z,92762.50
2022-08-22T05:27:48.879Z,92765.69
2022-08-22T05:30:28.022Z,92772.56
2022-08-22T05:33:27.215Z,92768.72
2022-08-22T05:36:09.252Z,92770.41
2022-08-22T05:38:49.502Z,92769.59
2022-08-22T05:41:23.946Z,92774.00
2022-08-22T05:43:53.858Z,92779.88
2022-08-22T05:46:27.714Z,92777.47
2022-08-22T05:49:00.104Z,92782.44
2022-08-22T05:51:40.553Z,92787.44
2022-08-22T05:54:33.840Z,92783.84
2022-08-22T05:57:30.619Z,92793.69
2022-08-22T06:00:08.128Z,92796.53
2022-08-22T06:02:49.252Z,92802.00
2022-08-22T06:05:26.359Z,92800.50
2022-08-22T06:08:01.462Z,92802.38
2022-08-22T06:10:55.312Z,92805.44
2022-08-22T06:13:41.451Z,92807.13
2022-08-22T06:16:22.039Z,92809.53
2022-08-22T06:18:52.431Z,92811.75
2022-08-22T06:21:35.430Z,92812.50
2022-08-22T06:24:13.547Z,92801.88
2022-08-22T06:26:48.878Z,92817.97
2022-08-22T06:29:32.805Z,92813.72
2022-08-22T06:32:08.045Z,92818.03
2022-08-22T06:34:41.130Z,92824.69
2022-08-22T06:37:20.522Z,92822.72
2022-08-22T06:39:53.239Z,92822.75
2022-08-22T06:42:43.379Z,92820.91
2022-08-22T06:45:26.736Z,92814.19
2022-08-22T06:48:00.972Z,92815.19
2022-08-22T06:50:38.476Z,92823.78
2022-08-22T06:53:25.059Z,92812.84
2022-08-22T06:55:59.633Z,92818.22
2022-08-22T06:58:34.477Z,92819.09
2022-08-22T07:01:20.468Z,92815.09
2022-08-22T07:03:54.278Z,92814.97
2022-08-22T07:06:35.255Z,92816.91
2022-08-22T07:09:06.987Z,92824.81
2022-08-22T07:11:41.250Z,92816.69
2022-08-22T07:14:11.808Z,92828.97
2022-08-22T07:17:05.170Z,92827.56
2022-08-22T07:19:37.665Z,92818.53
2022-08-22T07:22:24.091Z,92826.19
2022-08-22T07:24:56.728Z,92831.50
2022-08-22T07:27:54.758Z,92828.59
2022-08-22T07:30:27.899Z,92838.47
2022-08-22T07:33:23.675Z,92828.78
2022-08-22T07:35:53.826Z,92826.28
2022-08-22T07:38:43.004Z,92836.09
2022-08-22T07:41:26.623Z,92834.09
2022-08-22T07:44:17.927Z,92831.75
2022-08-22T07:46:55.254Z,92839.25
2022-08-22T07:49:29.312Z,92833.81
2022-08-22T07:52:08.319Z,92835.38
2022-08-22T07:54:43.218Z,92826.94
2022-08-22T07:57:31.875Z,92831.41
2022-08-22T08:00:01.944Z,92825.47
2022-08-22T08:02:46.734Z,92828.84
2022-08-22T08:05:15.277Z,92821.09
2022-08-22T08:07:45.768Z,92817.62
2022-08-22T08:10:19.568Z,92819.44
2022-08-22T08:12:56.136Z,92818.56
2022-08-22T08:15:33.913Z,92809.78
2022-08-22T08:18:11.134Z,92823.41
2022-08-22T08:20:39.022Z,92818.25
2022-08-22T08:23:10.789Z,92822.19
2022-08-22T08:25:54.537Z,92817.16
2022-08-22T08:28:35.562Z,92822.16
2022-08-22T08:31:09.890Z,92820.63
2022-08-22T08:33:41.589Z,92816.88
2022-08-22T08:36:41.740Z,92817.62
2022-08-22T08:39:24.310Z,92807.72
2022-08-22T08:41:54.513Z,92807.44
2022-08-22T08:44:35.980Z,92809.19
2022-08-22T08:47:58.094Z,92802.25
2022-08-22T08:51:02.147Z,92808.75
2022-08-22T08:53:45.083Z,92807.72
2022-08-22T08:56:26.018Z,92812.06
2022-08-22T08:59:10.230Z,92812.44
2022-08-22T09:02:26.037Z,92801.03
2022-08-22T09:05:24.453Z,92804.69
2022-08-22T09:07:54.869Z,92797.41
2022-08-22T09:10:50.263Z,92803.91
2022-08-22T09:13:40.717Z,92803.03
2022-08-22T09:16:45.080Z,92802.97
2022-08-22T09:19:43.425Z,92802.69
2022-08-22T09:22:33.391Z,92802.47
2022-08-22T09:25:38.637Z,92797.78
2022-08-22T09:28:32.507Z,92792.50
2022-08-22T09:31:47.829Z,92793.31
2022-08-22T09:34:45.374Z,92790.28
2022-08-22T09:37:47.211Z,92789.38
2022-08-22T09:43:11.053Z,92795.94
2022-08-22T09:45:47.216Z,92793.69
2022-08-22T09:48:34.821Z,92781.78
2022-08-22T09:51:31.908Z,92780.41
2022-08-22T09:54:08.836Z,92781.44
2022-08-22T09:57:13.992Z,92775.87
2022-08-22T10:00:13.680Z,92772.66
2022-08-22T10:03:10.647Z,92779.12
2022-08-22T10:06:06.694Z,92780.12
2022-08-22T10:09:02.327Z,92772.53
2022-08-22T10:11:54.446Z,92769.16
2022-08-22T10:14:31.605Z,92761.97
2022-08-22T10:17:21.895Z,92765.44
2022-08-22T10:19:59.010Z,92763.59
2022-08-22T10:22:41.743Z,92762.41
2022-08-22T10:25:33.601Z,92756.38
2022-08-22T10:28:39.637Z,92757.66
2022-08-22T10:31:31.463Z,92756.81
2022-08-22T10:34:19.841Z,92746.88
2022-08-22T10:37:23.750Z,92744.03
2022-08-22T10:40:13.734Z,92750.03
2022-08-22T10:42:53.671Z,92744.72
2022-08-22T10:45:36.419Z,92743.66
2022-08-22T10:48:11.018Z,92746.66
2022-08-22T10:50:45.116Z,92735.81
2022-08-22T10:53:42.929Z,92738.47
2022-08-22T10:56:21.506Z,92737.87
2022-08-22T10:59:01.412Z,92743.88
2022-08-22T11:01:42.259Z,92747.59
2022-08-22T11:04:35.989Z,92740.78
2022-08-22T11:07:25.349Z,92733.19
2022-08-22T11:10:01.994Z,92726.75
2022-08-22T11:12:41.571Z,92722.13
2022-08-22T11:15:34.702Z,92724.38
2022-08-22T11:18:28.630Z,92727.94
2022-08-22T11:21:07.572Z,92728.03
2022-08-22T11:24:17.446Z,92727.84
2022-08-22T11:27:21.045Z,92724.28
2022-08-22T11:30:25.879Z,92719.47
2022-08-22T11:33:11.365Z,92714.44
2022-08-22T11:35:48.660Z,92713.03
2022-08-22T11:38:41.948Z,92720.53
2022-08-22T11:41:26.791Z,92719.41
2022-08-22T11:44:19.970Z,92710.09
2022-08-22T11:46:51.300Z,92698.53
2022-08-22T11:49:32.991Z,92707.91
2022-08-22T11:52:07.769Z,92700.78
2022-08-22T11:54:57.638Z,92709.09
2022-08-22T11:57:48.048Z,92701.94
2022-08-22T12:00:26.709Z,92708.81
2022-08-22T12:03:14.824Z,92703.38
2022-08-22T12:06:04.158Z,92711.91
2022-08-22T12:08:37.854Z,92711.47
2022-08-22T12:11:10.422Z,92703.94
2022-08-22T12:14:05.887Z,92706.34
2022-08-22T12:16:52.714Z,92704.28
2022-08-22T12:19:33.119Z,92704.00
2022-08-22T12:22:18.042Z,92716.94
2022-08-22T12:25:03.554Z,92713.41
2022-08-22T12:27:33.918Z,92714.13
2022-08-22T12:30:13.919Z,92705.06
2022-08-22T12:33:13.338Z,92697.84
2022-08-22T12:35:50.407Z,92681.66
2022-08-22T12:38:39.086Z,92679.53
2022-08-22T12:41:09.809Z,92682.81
2022-08-22T12:43:43.697Z,92678.50
2022-08-22T12:46:23.792Z,92681.69
2022-08-22T12:49:11.287Z,92684.84
2022-08-22T12:51:39.019Z,92673.59
2022-08-22T12:54:48.843Z,92666.78
2022-08-22T12:57:54.511Z,92663.66
2022-08-22T13:00:40.347Z,92665.59
2022-08-22T13:03:27.765Z,92674.94
2022-08-22T13:06:02.458Z,92674.63
2022-08-22T13:08:41.094Z,92684.63
2022-08-22T13:11:12.525Z,92701.97
2022-08-22T13:14:01.246Z,92693.03
2022-08-22T13:16:40.346Z,92708.38
2022-08-22T13:19:24.046Z,92719.88
2022-08-22T13:22:14.095Z,92728.31
2022-08-22T13:24:52.667Z,92722.84
2022-08-22T13:27:29.803Z,92719.97
2022-08-22T13:30:08.034Z,92726.75
2022-08-22T13:32:45.676Z,92734.06
2022-08-22T13:35:31.600Z,92738.16
2022-08-22T13:38:12.335Z,92739.19
2022-08-22T13:40:45.532Z,92743.22
2022-08-22T13:43:19.814Z,92747.59
2022-08-22T13:46:01.956Z,92741.38
2022-08-22T13:48:52.050Z,92731.31
2022-08-22T13:51:48.449Z,92729.63
2022-08-22T13:54:15.853Z,92730.41
2022-08-22T13:57:23.784Z,92720.06
2022-08-22T14:00:06.347Z,92731.31
2022-08-22T14:02:47.726Z,92739.22
2022-08-22T14:05:40.359Z,92741.53
2022-08-22T14:08:12.996Z,92750.47
2022-08-22T14:10:55.085Z,92750.78
2022-08-22T14:13:36.785Z,92752.34
2022-08-22T14:16:19.869Z,92752.69
2022-08-22T14:18:51.536Z,92748.09
2022-08-22T14:21:25.265Z,92762.31
2022-08-22T14:24:25.710Z,92760.53
2022-08-22T14:27:08.782Z,92770.50
2022-08-22T14:29:50.352Z,92764.97
2022-08-22T14:32:22.687Z,92759.13
2022-08-22T14:35:23.377Z,92765.19
2022-08-22T14:38:17.303Z,92761.72
2022-08-22T14:40:52.348Z,92771.84
2022-08-22T14:43:30.041Z,92780.22
2022-08-22T14:46:06.721Z,92772.84
2022-08-22T14:48:42.867Z,92776.22
2022-08-22T14:51:24.392Z,92778.53
2022-08-22T14:53:52.466Z,92776.63
2022-08-22T14:56:27.933Z,92764.59
2022-08-22T14:59:02.021Z,92771.75
2022-08-22T15:01:34.132Z,92774.97
2022-08-22T15:04:06.726Z,92769.97
2022-08-22T15:06:39.561Z,92772.50
2022-08-22T15:09:31.548Z,92767.16
2022-08-22T15:12:01.764Z,92758.28
2022-08-22T15:14:52.182Z,92754.72
2022-08-22T15:17:44.021Z,92752.78
2022-08-22T15:20:22.819Z,92750.56
2022-08-22T15:23:10.088Z,92741.41
2022-08-22T15:25:43.167Z,92741.34
2022-08-22T15:28:20.211Z,92735.88
2022-08-22T15:30:57.078Z,92729.72
2022-08-22T15:33:40.075Z,92724.84
2022-08-22T15:36:15.903Z,92725.84
2022-08-22T15:38:49.073Z,92725.31
2022-08-22T15:41:25.412Z,92723.75
2022-08-22T15:44:33.001Z,92713.72
2022-08-22T15:47:03.291Z,92722.06
2022-08-22T15:49:36.446Z,92720.03
2022-08-22T15:52:15.343Z,92723.72
2022-08-22T15:54:44.258Z,92732.59
2022-08-22T15:57:30.129Z,92725.69
2022-08-22T16:00:05.162Z,92736.69
2022-08-22T16:02:53.904Z,92743.31
2022-08-22T16:05:29.243Z,92743.50
2022-08-22T16:08:23.759Z,92751.91
2022-08-22T16:11:16.336Z,92751.16
2022-08-22T16:13:45.681Z,92755.97
2022-08-22T16:16:25.230Z,92761.00
2022-08-22T16:18:52.899Z,92765.50
2022-08-22T16:21:23.420Z,92766.19
2022-08-22T16:23:54.095Z,92768.63
2022-08-22T16:26:32.639Z,92771.03
2022-08-22T16:29:00.218Z,92771.38
2022-08-22T16:31:30.376Z,92777.72
2022-08-22T16:34:19.288Z,92785.72
2022-08-22T16:37:04.211Z,92781.28
2022-08-22T16:39:43.519Z,92784.69
2022-08-22T16:42:22.148Z,92779.03
2022-08-22T16:45:10.708Z,92780.75
2022-08-22T16:47:52.766Z,92781.91
2022-08-22T16:50:31.557Z,92790.31
2022-08-22T16:53:33.066Z,92783.94
2022-08-22T16:56:24.876Z,92798.69
2022-08-22T16:59:22.583Z,92791.22
2022-08-22T17:02:22.267Z,92791.50
2022-08-22T17:05:21.801Z,92787.16
2022-08-22T17:08:10.979Z,92786.94
2022-08-22T17:11:14.171Z,92788.78
2022-08-22T17:14:12.398Z,92777.25
2022-08-22T17:16:49.772Z,92778.31
2022-08-22T17:19:44.158Z,92765.09
2022-08-22T17:22:29.503Z,92765.16
2022-08-22T17:25:12.311Z,92767.09
2022-08-22T17:27:44.740Z,92782.28
2022-08-22T17:30:35.155Z,92787.09
2022-08-22T17:33:17.170Z,92787.50
2022-08-22T17:36:03.967Z,92788.69
2022-08-22T17:39:03.557Z,92789.25
2022-08-22T17:41:47.931Z,92796.59
2022-08-22T17:44:30.802Z,92795.16
2022-08-22T17:47:22.145Z,92796.63
2022-08-22T17:50:11.146Z,92804.13
2022-08-22T17:52:51.726Z,92801.78
2022-08-22T17:55:29.295Z,92805.78
2022-08-22T17:58:11.735Z,92817.62
2022-08-22T18:01:20.429Z,92817.44
2022-08-22T18:03:59.299Z,92816.88
2022-08-22T18:06:33.842Z,92811.06
2022-08-22T18:09:13.757Z,92819.53
2022-08-22T18:11:52.309Z,92829.53
2022-08-22T18:14:38.568Z,92830.94
2022-08-22T18:17:49.575Z,92829.56
2022-08-22T18:20:25.410Z,92837.72
2022-08-22T18:23:00.417Z,92831.19
2022-08-22T18:25:39.487Z,92835.38
2022-08-22T18:28:14.740Z,92837.59
2022-08-22T18:31:02.190Z,92842.91
2022-08-22T18:33:46.361Z,92849.63
2022-08-22T18:36:28.355Z,92849.16
2022-08-22T18:39:03.721Z,92851.66
2022-08-22T18:41:39.036Z,92853.38
2022-08-22T18:44:12.289Z,92854.31
2022-08-22T18:46:47.206Z,92851.78
2022-08-22T18:49:19.747Z,92867.25
2022-08-22T18:52:08.620Z,92864.28
2022-08-22T18:54:44.645Z,92866.94
2022-08-22T18:57:34.877Z,92864.09
2022-08-22T19:00:21.153Z,92878.94
2022-08-22T19:03:16.930Z,92880.38
2022-08-22T19:06:23.488Z,92883.03
2022-08-22T19:09:03.452Z,92883.78
2022-08-22T19:12:31.622Z,92880.19
2022-08-22T19:15:24.863Z,92884.56
2022-08-22T19:18:30.953Z,92881.31
2022-08-22T19:21:35.870Z,92887.25
2022-08-22T19:24:28.214Z,92887.25
2022-08-22T19:27:11.421Z,92885.66
2022-08-22T19:29:38.951Z,92895.34
2022-08-22T19:32:12.930Z,92897.66
2022-08-22T19:34:47.177Z,92895.91
2022-08-22T19:37:30.720Z,92900.16
2022-08-22T19:40:06.980Z,92905.63
2022-08-22T19:42:38.417Z,92900.94
2022-08-22T19:45:19.778Z,92903.41
2022-08-22T19:48:11.878Z,92906.44
2022-08-22T19:50:43.441Z,92904.87
2022-08-22T19:53:33.120Z,92900.62
2022-08-22T19:56:18.013Z,92892.66
2022-08-22T19:59:11.626Z,92898.72
2022-08-22T20:02:15.055Z,92898.28
2022-08-22T20:04:45.906Z,92902.47
2022-08-22T20:07:16.265Z,92900.31
2022-08-22T20:10:07.013Z,92904.13
2022-08-22T20:12:57.158Z,92896.81
2022-08-22T20:15:28.773Z,92898.13
2022-08-22T20:18:12.110Z,92891.31
2022-08-22T20:20:58.486Z,92890.09
2022-08-22T20:23:31.016Z,92887.16
2022-08-22T20:25:59.786Z,92887.28
2022-08-22T20:28:45.779Z,92883.06
2022-08-22T20:31:23.554Z,92882.81
2022-08-22T20:34:13.664Z,92892.28
2022-08-22T20:36:46.569Z,92888.91
2022-08-22T20:39:21.609Z,92890.22
2022-08-22T20:42:06.752Z,92888.97
2022-08-22T20:44:43.525Z,92891.38
2022-08-22T20:47:17.235Z,92895.34
2022-08-22T20:49:55.046Z,92900.72
2022-08-22T20:52:27.462Z,92902.81
2022-08-22T20:55:06.136Z,92899.44
2022-08-22T20:57:43.748Z,92909.00
2022-08-22T21:00:22.197Z,92909.38
2022-08-22T21:02:59.066Z,92908.88
2022-08-22T21:05:39.124Z,92909.66
2022-08-22T21:08:26.373Z,92896.50
2022-08-22T21:11:19.113Z,92895.97
2022-08-22T21:13:47.336Z,92897.44
2022-08-22T21:16:33.456Z,92903.44
2022-08-22T21:19:04.556Z,92908.56
2022-08-22T21:21:35.251Z,92901.12
2022-08-22T21:24:06.975Z,92897.87
2022-08-22T21:26:46.426Z,92899.75
2022-08-22T21:29:14.154Z,92895.97
2022-08-22T21:31:49.823Z,92897.41
2022-08-22T21:34:29.971Z,92897.59
2022-08-22T21:37:06.357Z,92895.97
2022-08-22T21:39:44.224Z,92891.53
2022-08-22T21:42:23.098Z,92894.66
2022-08-22T21:45:02.918Z,92892.09
2022-08-22T21:47:39.423Z,92898.00
2022-08-22T21:50:13.161Z,92892.00
2022-08-22T21:52:44.827Z,92890.53
2022-08-22T21:55:34.946Z,92878.34
2022-08-22T21:58:07.638Z,92890.03
2022-08-22T22:00:51.237Z,92886.59
2022-08-22T22:03:23.297Z,92880.94
2022-08-22T22:05:53.076Z,92882.75
2022-08-22T22:08:21.112Z,92871.88
2022-08-22T22:10:50.151Z,92871.88
2022-08-22T22:13:20.072Z,92865.75
2022-08-22T22:15:54.375Z,92863.31
2022-08-22T22:18:25.710Z,92872.06
2022-08-22T22:20:54.733Z,92867.06
2022-08-22T22:23:22.696Z,92856.53
2022-08-22T22:25:51.517Z,92856.50
2022-08-22T22:28:22.738Z,92866.84
2022-08-22T22:30:53.307Z,92861.81
2022-08-22T22:33:27.434Z,92864.31
2022-08-22T22:35:57.400Z,92856.63
2022-08-22T22:38:25.826Z,92856.25
2022-08-22T22:40:53.559Z,92851.31
2022-08-22T22:43:21.580Z,92848.47
2022-08-22T22:45:49.337Z,92848.81
2022-08-22T22:48:24.343Z,92851.09
2022-08-22T22:50:55.132Z,92856.66
2022-08-22T22:53:33.681Z,92865.59
2022-08-22T22:56:11.625Z,92861.78
2022-08-22T22:58:39.428Z,92866.56
2022-08-22T23:01:11.859Z,92872.06
2022-08-22T23:03:39.746Z,92866.09
2022-08-22T23:06:16.300Z,92860.41
2022-08-22T23:08:44.463Z,92869.84
2022-08-22T23:11:26.263Z,92869.94
2022-08-22T23:13:54.301Z,92878.88
2022-08-22T23:16:25.178Z,92876.06
2022-08-22T23:18:53.057Z,92881.53
2022-08-22T23:21:30.949Z,92891.47
2022-08-22T23:23:59.777Z,92885.66
2022-08-22T23:26:28.618Z,92876.22
2022-08-22T23:28:56.977Z,92881.13
2022-08-22T23:31:40.470Z,92881.38
2022-08-22T23:34:13.888Z,92877.62
2022-08-22T23:36:45.688Z,92881.87
2022-08-22T23:39:15.562Z,92880.50
2022-08-22T23:41:44.733Z,92879.59
2022-08-22T23:44:17.576Z,92882.66
2022-08-22T23:46:45.183Z,92877.22
2022-08-22T23:49:13.975Z,92878.69
2022-08-22T23:51:43.489Z,92878.69
2022-08-22T23:54:11.143Z,92884.94
2022-08-22T23:56:44.535Z,92881.69
2022-08-22T23:59:15.508Z,92895.75
